sensor_id;sensor_type;location;lat;lon;timestamp;P1;durP1;ratioP1;P2;durP2;ratioP2
6551;SDS011;3309;48.708;9.290;2023-04-24T00:01:04;0.60;;;0.60;;
6551;SDS011;3309;48.708;9.290;2023-04-24T00:03:32;0.60;;;0.60;;
6551;SDS011;3309;48.708;9.290;2023-04-24T00:05:58;0.60;;;0.60;;
6551;SDS011;3309;48.708;9.290;2023-04-24T00:08:25;0.60;;;0.60;;
6551;SDS011;3309;48.708;9.290;2023-04-24T00:10:51;0.60;;;0.60;;
6551;SDS011;3309;48.708;9.290;2023-04-24T00:13:17;0.50;;;0.50;;
6551;SDS011;3309;48.708;9.290;2023-04-24T00:15:43;0.60;;;0.60;;
6551;SDS011;3309;48.708;9.290;2023-04-24T00:18:09;0.60;;;0.60;;
6551;SDS011;3309;48.708;9.290;2023-04-24T00:20:35;0.60;;;0.60;;
6551;SDS011;3309;48.708;9.290;2023-04-24T00:23:02;0.70;;;0.70;;
6551;SDS011;3309;48.708;9.290;2023-04-24T00:25:28;0.77;;;0.77;;
6551;SDS011;3309;48.708;9.290;2023-04-24T00:27:54;0.60;;;0.60;;
6551;SDS011;3309;48.708;9.290;2023-04-24T00:30:20;0.70;;;0.70;;
6551;SDS011;3309;48.708;9.290;2023-04-24T00:32:46;0.70;;;0.70;;
6551;SDS011;3309;48.708;9.290;2023-04-24T00:35:12;0.63;;;0.63;;
6551;SDS011;3309;48.708;9.290;2023-04-24T00:37:39;0.50;;;0.50;;
6551;SDS011;3309;48.708;9.290;2023-04-24T00:40:05;0.60;;;0.60;;
6551;SDS011;3309;48.708;9.290;2023-04-24T00:42:31;0.60;;;0.60;;
6551;SDS011;3309;48.708;9.290;2023-04-24T00:44:58;0.60;;;0.60;;
6551;SDS011;3309;48.708;9.290;2023-04-24T00:47:24;0.63;;;0.63;;
6551;SDS011;3309;48.708;9.290;2023-04-24T00:49:51;0.60;;;0.60;;
6551;SDS011;3309;48.708;9.290;2023-04-24T00:52:17;0.70;;;0.70;;
6551;SDS011;3309;48.708;9.290;2023-04-24T00:54:43;0.50;;;0.50;;
6551;SDS011;3309;48.708;9.290;2023-04-24T00:57:10;0.60;;;0.60;;
6551;SDS011;3309;48.708;9.290;2023-04-24T00:59:36;0.70;;;0.70;;
6551;SDS011;3309;48.708;9.290;2023-04-24T01:02:02;0.60;;;0.60;;
6551;SDS011;3309;48.708;9.290;2023-04-24T01:04:28;0.50;;;0.50;;
6551;SDS011;3309;48.708;9.290;2023-04-24T01:06:54;0.70;;;0.70;;
6551;SDS011;3309;48.708;9.290;2023-04-24T01:09:21;0.60;;;0.60;;
6551;SDS011;3309;48.708;9.290;2023-04-24T01:11:49;0.70;;;0.70;;
6551;SDS011;3309;48.708;9.290;2023-04-24T01:14:16;0.60;;;0.60;;
6551;SDS011;3309;48.708;9.290;2023-04-24T01:16:42;0.50;;;0.50;;
6551;SDS011;3309;48.708;9.290;2023-04-24T01:19:08;0.50;;;0.50;;
6551;SDS011;3309;48.708;9.290;2023-04-24T01:21:36;0.70;;;0.70;;
6551;SDS011;3309;48.708;9.290;2023-04-24T01:24:03;0.57;;;0.57;;
6551;SDS011;3309;48.708;9.290;2023-04-24T01:26:29;0.70;;;0.70;;
6551;SDS011;3309;48.708;9.290;2023-04-24T01:28:55;0.57;;;0.57;;
6551;SDS011;3309;48.708;9.290;2023-04-24T01:31:21;0.60;;;0.60;;
6551;SDS011;3309;48.708;9.290;2023-04-24T01:33:47;0.50;;;0.50;;
6551;SDS011;3309;48.708;9.290;2023-04-24T01:36:13;0.60;;;0.60;;
6551;SDS011;3309;48.708;9.290;2023-04-24T01:38:39;0.60;;;0.60;;
6551;SDS011;3309;48.708;9.290;2023-04-24T01:41:05;0.60;;;0.60;;
6551;SDS011;3309;48.708;9.290;2023-04-24T01:43:31;0.60;;;0.60;;
6551;SDS011;3309;48.708;9.290;2023-04-24T01:45:57;0.67;;;0.67;;
6551;SDS011;3309;48.708;9.290;2023-04-24T01:48:23;0.57;;;0.57;;
6551;SDS011;3309;48.708;9.290;2023-04-24T01:50:49;0.60;;;0.60;;
6551;SDS011;3309;48.708;9.290;2023-04-24T01:53:15;0.60;;;0.60;;
6551;SDS011;3309;48.708;9.290;2023-04-24T01:55:41;0.60;;;0.60;;
6551;SDS011;3309;48.708;9.290;2023-04-24T01:58:07;0.70;;;0.70;;
6551;SDS011;3309;48.708;9.290;2023-04-24T02:00:33;0.70;;;0.70;;
6551;SDS011;3309;48.708;9.290;2023-04-24T02:02:59;0.60;;;0.60;;
6551;SDS011;3309;48.708;9.290;2023-04-24T02:05:26;0.60;;;0.60;;
6551;SDS011;3309;48.708;9.290;2023-04-24T02:07:52;0.60;;;0.60;;
6551;SDS011;3309;48.708;9.290;2023-04-24T02:10:18;0.50;;;0.50;;
6551;SDS011;3309;48.708;9.290;2023-04-24T02:12:44;0.57;;;0.57;;
6551;SDS011;3309;48.708;9.290;2023-04-24T02:15:10;0.60;;;0.60;;
6551;SDS011;3309;48.708;9.290;2023-04-24T02:17:37;0.60;;;0.60;;
6551;SDS011;3309;48.708;9.290;2023-04-24T02:20:03;0.50;;;0.50;;
6551;SDS011;3309;48.708;9.290;2023-04-24T02:22:29;0.53;;;0.53;;
6551;SDS011;3309;48.708;9.290;2023-04-24T02:24:55;0.60;;;0.60;;
6551;SDS011;3309;48.708;9.290;2023-04-24T02:27:21;0.60;;;0.60;;
6551;SDS011;3309;48.708;9.290;2023-04-24T02:29:47;0.50;;;0.50;;
6551;SDS011;3309;48.708;9.290;2023-04-24T02:32:13;0.57;;;0.57;;
6551;SDS011;3309;48.708;9.290;2023-04-24T02:34:40;0.60;;;0.60;;
6551;SDS011;3309;48.708;9.290;2023-04-24T02:37:06;0.60;;;0.60;;
6551;SDS011;3309;48.708;9.290;2023-04-24T02:39:32;0.60;;;0.60;;
6551;SDS011;3309;48.708;9.290;2023-04-24T02:41:58;0.57;;;0.57;;
6551;SDS011;3309;48.708;9.290;2023-04-24T02:44:24;0.70;;;0.70;;
6551;SDS011;3309;48.708;9.290;2023-04-24T02:46:50;0.60;;;0.60;;
6551;SDS011;3309;48.708;9.290;2023-04-24T02:49:16;0.70;;;0.70;;
6551;SDS011;3309;48.708;9.290;2023-04-24T02:51:42;0.63;;;0.63;;
6551;SDS011;3309;48.708;9.290;2023-04-24T02:54:08;0.57;;;0.57;;
6551;SDS011;3309;48.708;9.290;2023-04-24T02:56:34;0.70;;;0.70;;
6551;SDS011;3309;48.708;9.290;2023-04-24T02:59:01;0.60;;;0.60;;
6551;SDS011;3309;48.708;9.290;2023-04-24T03:01:27;0.60;;;0.60;;
6551;SDS011;3309;48.708;9.290;2023-04-24T03:03:52;0.60;;;0.60;;
6551;SDS011;3309;48.708;9.290;2023-04-24T03:06:18;0.60;;;0.60;;
6551;SDS011;3309;48.708;9.290;2023-04-24T03:08:45;0.50;;;0.50;;
6551;SDS011;3309;48.708;9.290;2023-04-24T03:11:11;0.60;;;0.60;;
6551;SDS011;3309;48.708;9.290;2023-04-24T03:13:37;0.57;;;0.57;;
6551;SDS011;3309;48.708;9.290;2023-04-24T03:16:03;0.60;;;0.60;;
6551;SDS011;3309;48.708;9.290;2023-04-24T03:18:30;0.60;;;0.60;;
6551;SDS011;3309;48.708;9.290;2023-04-24T03:20:56;0.67;;;0.67;;
6551;SDS011;3309;48.708;9.290;2023-04-24T03:23:22;0.50;;;0.50;;
6551;SDS011;3309;48.708;9.290;2023-04-24T03:25:48;0.70;;;0.70;;
6551;SDS011;3309;48.708;9.290;2023-04-24T03:28:14;0.60;;;0.60;;
6551;SDS011;3309;48.708;9.290;2023-04-24T03:30:40;0.60;;;0.60;;
6551;SDS011;3309;48.708;9.290;2023-04-24T03:33:06;0.53;;;0.53;;
6551;SDS011;3309;48.708;9.290;2023-04-24T03:35:32;0.70;;;0.70;;
6551;SDS011;3309;48.708;9.290;2023-04-24T03:37:58;0.50;;;0.50;;
6551;SDS011;3309;48.708;9.290;2023-04-24T03:40:24;0.53;;;0.53;;
6551;SDS011;3309;48.708;9.290;2023-04-24T03:42:50;0.60;;;0.60;;
6551;SDS011;3309;48.708;9.290;2023-04-24T03:45:16;0.63;;;0.63;;
6551;SDS011;3309;48.708;9.290;2023-04-24T03:47:42;0.50;;;0.50;;
6551;SDS011;3309;48.708;9.290;2023-04-24T03:50:08;0.70;;;0.70;;
6551;SDS011;3309;48.708;9.290;2023-04-24T03:52:34;0.57;;;0.57;;
6551;SDS011;3309;48.708;9.290;2023-04-24T03:55:01;0.70;;;0.70;;
6551;SDS011;3309;48.708;9.290;2023-04-24T03:57:27;0.60;;;0.60;;
6551;SDS011;3309;48.708;9.290;2023-04-24T03:59:53;0.60;;;0.60;;
6551;SDS011;3309;48.708;9.290;2023-04-24T04:02:20;0.60;;;0.60;;
6551;SDS011;3309;48.708;9.290;2023-04-24T04:04:46;0.60;;;0.60;;
6551;SDS011;3309;48.708;9.290;2023-04-24T04:07:12;0.70;;;0.70;;
6551;SDS011;3309;48.708;9.290;2023-04-24T04:09:38;0.60;;;0.60;;
6551;SDS011;3309;48.708;9.290;2023-04-24T04:12:04;0.60;;;0.60;;
6551;SDS011;3309;48.708;9.290;2023-04-24T04:14:30;0.60;;;0.60;;
6551;SDS011;3309;48.708;9.290;2023-04-24T04:16:56;0.70;;;0.70;;
6551;SDS011;3309;48.708;9.290;2023-04-24T04:19:22;0.67;;;0.67;;
6551;SDS011;3309;48.708;9.290;2023-04-24T04:21:48;0.70;;;0.70;;
6551;SDS011;3309;48.708;9.290;2023-04-24T04:24:18;0.60;;;0.60;;
6551;SDS011;3309;48.708;9.290;2023-04-24T04:26:45;0.70;;;0.70;;
6551;SDS011;3309;48.708;9.290;2023-04-24T04:29:12;0.63;;;0.63;;
6551;SDS011;3309;48.708;9.290;2023-04-24T04:31:38;0.60;;;0.60;;
6551;SDS011;3309;48.708;9.290;2023-04-24T04:34:04;0.60;;;0.60;;
6551;SDS011;3309;48.708;9.290;2023-04-24T04:36:30;0.60;;;0.60;;
6551;SDS011;3309;48.708;9.290;2023-04-24T04:38:57;0.77;;;0.77;;
6551;SDS011;3309;48.708;9.290;2023-04-24T04:41:24;0.60;;;0.60;;
6551;SDS011;3309;48.708;9.290;2023-04-24T04:43:51;0.60;;;0.60;;
6551;SDS011;3309;48.708;9.290;2023-04-24T04:46:17;0.67;;;0.67;;
6551;SDS011;3309;48.708;9.290;2023-04-24T04:48:43;0.60;;;0.60;;
6551;SDS011;3309;48.708;9.290;2023-04-24T04:51:10;0.60;;;0.60;;
6551;SDS011;3309;48.708;9.290;2023-04-24T04:53:36;0.70;;;0.70;;
6551;SDS011;3309;48.708;9.290;2023-04-24T04:56:02;0.60;;;0.60;;
6551;SDS011;3309;48.708;9.290;2023-04-24T04:58:28;0.60;;;0.60;;
6551;SDS011;3309;48.708;9.290;2023-04-24T05:00:55;0.60;;;0.60;;
6551;SDS011;3309;48.708;9.290;2023-04-24T05:03:22;0.60;;;0.60;;
6551;SDS011;3309;48.708;9.290;2023-04-24T05:05:48;0.60;;;0.60;;
6551;SDS011;3309;48.708;9.290;2023-04-24T05:08:14;0.70;;;0.70;;
6551;SDS011;3309;48.708;9.290;2023-04-24T05:10:40;0.67;;;0.67;;
6551;SDS011;3309;48.708;9.290;2023-04-24T05:13:06;0.53;;;0.53;;
6551;SDS011;3309;48.708;9.290;2023-04-24T05:15:32;0.70;;;0.70;;
6551;SDS011;3309;48.708;9.290;2023-04-24T05:17:58;0.60;;;0.60;;
6551;SDS011;3309;48.708;9.290;2023-04-24T05:20:24;0.63;;;0.63;;
6551;SDS011;3309;48.708;9.290;2023-04-24T05:22:50;0.60;;;0.60;;
6551;SDS011;3309;48.708;9.290;2023-04-24T05:25:16;0.70;;;0.70;;
6551;SDS011;3309;48.708;9.290;2023-04-24T05:27:42;0.70;;;0.70;;
6551;SDS011;3309;48.708;9.290;2023-04-24T05:30:09;0.73;;;0.73;;
6551;SDS011;3309;48.708;9.290;2023-04-24T05:32:35;0.70;;;0.70;;
6551;SDS011;3309;48.708;9.290;2023-04-24T05:35:01;0.60;;;0.60;;
6551;SDS011;3309;48.708;9.290;2023-04-24T05:37:27;0.67;;;0.67;;
6551;SDS011;3309;48.708;9.290;2023-04-24T05:39:53;0.70;;;0.70;;
6551;SDS011;3309;48.708;9.290;2023-04-24T05:42:19;0.60;;;0.60;;
6551;SDS011;3309;48.708;9.290;2023-04-24T05:44:45;0.70;;;0.70;;
6551;SDS011;3309;48.708;9.290;2023-04-24T05:47:10;0.50;;;0.50;;
6551;SDS011;3309;48.708;9.290;2023-04-24T05:49:36;0.70;;;0.70;;
6551;SDS011;3309;48.708;9.290;2023-04-24T05:52:02;0.50;;;0.50;;
6551;SDS011;3309;48.708;9.290;2023-04-24T05:54:30;0.60;;;0.60;;
6551;SDS011;3309;48.708;9.290;2023-04-24T05:56:56;0.60;;;0.60;;
6551;SDS011;3309;48.708;9.290;2023-04-24T05:59:22;0.60;;;0.60;;
6551;SDS011;3309;48.708;9.290;2023-04-24T06:01:48;0.60;;;0.60;;
6551;SDS011;3309;48.708;9.290;2023-04-24T06:04:14;0.50;;;0.50;;
6551;SDS011;3309;48.708;9.290;2023-04-24T06:06:40;0.50;;;0.50;;
6551;SDS011;3309;48.708;9.290;2023-04-24T06:09:06;0.70;;;0.70;;
6551;SDS011;3309;48.708;9.290;2023-04-24T06:11:32;0.63;;;0.63;;
6551;SDS011;3309;48.708;9.290;2023-04-24T06:13:58;0.50;;;0.50;;
6551;SDS011;3309;48.708;9.290;2023-04-24T06:16:24;0.60;;;0.60;;
6551;SDS011;3309;48.708;9.290;2023-04-24T06:18:50;0.50;;;0.50;;
6551;SDS011;3309;48.708;9.290;2023-04-24T06:21:16;0.70;;;0.70;;
6551;SDS011;3309;48.708;9.290;2023-04-24T06:23:42;0.60;;;0.60;;
6551;SDS011;3309;48.708;9.290;2023-04-24T06:26:08;0.70;;;0.70;;
6551;SDS011;3309;48.708;9.290;2023-04-24T06:28:34;0.53;;;0.53;;
6551;SDS011;3309;48.708;9.290;2023-04-24T06:31:00;0.50;;;0.50;;
6551;SDS011;3309;48.708;9.290;2023-04-24T06:33:26;0.50;;;0.50;;
6551;SDS011;3309;48.708;9.290;2023-04-24T06:35:52;0.60;;;0.60;;
6551;SDS011;3309;48.708;9.290;2023-04-24T06:38:18;0.70;;;0.70;;
6551;SDS011;3309;48.708;9.290;2023-04-24T06:40:44;0.70;;;0.70;;
6551;SDS011;3309;48.708;9.290;2023-04-24T06:43:10;0.50;;;0.50;;
6551;SDS011;3309;48.708;9.290;2023-04-24T06:45:36;0.50;;;0.50;;
6551;SDS011;3309;48.708;9.290;2023-04-24T06:48:04;0.60;;;0.60;;
6551;SDS011;3309;48.708;9.290;2023-04-24T06:50:30;0.53;;;0.53;;
6551;SDS011;3309;48.708;9.290;2023-04-24T06:52:56;0.60;;;0.60;;
6551;SDS011;3309;48.708;9.290;2023-04-24T06:55:22;0.60;;;0.60;;
6551;SDS011;3309;48.708;9.290;2023-04-24T06:57:48;0.60;;;0.60;;
6551;SDS011;3309;48.708;9.290;2023-04-24T07:00:14;0.50;;;0.50;;
6551;SDS011;3309;48.708;9.290;2023-04-24T07:02:40;0.57;;;0.57;;
6551;SDS011;3309;48.708;9.290;2023-04-24T07:05:06;0.40;;;0.40;;
6551;SDS011;3309;48.708;9.290;2023-04-24T07:07:33;0.50;;;0.50;;
6551;SDS011;3309;48.708;9.290;2023-04-24T07:09:59;0.50;;;0.50;;
6551;SDS011;3309;48.708;9.290;2023-04-24T07:12:25;0.60;;;0.60;;
6551;SDS011;3309;48.708;9.290;2023-04-24T07:14:51;0.50;;;0.50;;
6551;SDS011;3309;48.708;9.290;2023-04-24T07:17:17;0.40;;;0.40;;
6551;SDS011;3309;48.708;9.290;2023-04-24T07:19:43;0.40;;;0.40;;
6551;SDS011;3309;48.708;9.290;2023-04-24T07:22:10;0.50;;;0.50;;
6551;SDS011;3309;48.708;9.290;2023-04-24T07:24:41;0.60;;;0.60;;
6551;SDS011;3309;48.708;9.290;2023-04-24T07:27:08;0.50;;;0.50;;
6551;SDS011;3309;48.708;9.290;2023-04-24T07:29:34;0.50;;;0.50;;
6551;SDS011;3309;48.708;9.290;2023-04-24T07:32:00;0.50;;;0.50;;
6551;SDS011;3309;48.708;9.290;2023-04-24T07:34:26;0.50;;;0.50;;
6551;SDS011;3309;48.708;9.290;2023-04-24T07:36:52;0.60;;;0.60;;
6551;SDS011;3309;48.708;9.290;2023-04-24T07:39:18;0.60;;;0.60;;
6551;SDS011;3309;48.708;9.290;2023-04-24T07:41:44;0.60;;;0.60;;
6551;SDS011;3309;48.708;9.290;2023-04-24T07:44:10;0.60;;;0.60;;
6551;SDS011;3309;48.708;9.290;2023-04-24T07:46:36;0.60;;;0.60;;
6551;SDS011;3309;48.708;9.290;2023-04-24T07:49:02;0.60;;;0.60;;
6551;SDS011;3309;48.708;9.290;2023-04-24T07:51:29;0.50;;;0.50;;
6551;SDS011;3309;48.708;9.290;2023-04-24T07:53:56;0.53;;;0.53;;
6551;SDS011;3309;48.708;9.290;2023-04-24T07:56:22;0.50;;;0.50;;
6551;SDS011;3309;48.708;9.290;2023-04-24T07:58:48;0.47;;;0.47;;
6551;SDS011;3309;48.708;9.290;2023-04-24T08:01:14;0.30;;;0.30;;
6551;SDS011;3309;48.708;9.290;2023-04-24T08:03:40;0.37;;;0.37;;
6551;SDS011;3309;48.708;9.290;2023-04-24T08:06:06;0.40;;;0.40;;
6551;SDS011;3309;48.708;9.290;2023-04-24T08:08:32;0.40;;;0.40;;
6551;SDS011;3309;48.708;9.290;2023-04-24T08:10:59;0.40;;;0.40;;
6551;SDS011;3309;48.708;9.290;2023-04-24T08:13:24;0.30;;;0.30;;
6551;SDS011;3309;48.708;9.290;2023-04-24T08:15:50;0.33;;;0.33;;
6551;SDS011;3309;48.708;9.290;2023-04-24T08:18:16;0.30;;;0.30;;
6551;SDS011;3309;48.708;9.290;2023-04-24T08:20:42;0.30;;;0.30;;
6551;SDS011;3309;48.708;9.290;2023-04-24T08:23:10;0.30;;;0.30;;
6551;SDS011;3309;48.708;9.290;2023-04-24T08:25:36;0.50;;;0.50;;
6551;SDS011;3309;48.708;9.290;2023-04-24T08:28:02;0.47;;;0.47;;
6551;SDS011;3309;48.708;9.290;2023-04-24T08:30:29;0.50;;;0.50;;
6551;SDS011;3309;48.708;9.290;2023-04-24T08:32:55;0.40;;;0.40;;
6551;SDS011;3309;48.708;9.290;2023-04-24T08:35:21;0.30;;;0.30;;
6551;SDS011;3309;48.708;9.290;2023-04-24T08:37:47;0.40;;;0.40;;
6551;SDS011;3309;48.708;9.290;2023-04-24T08:40:14;0.43;;;0.43;;
6551;SDS011;3309;48.708;9.290;2023-04-24T08:42:43;0.50;;;0.50;;
6551;SDS011;3309;48.708;9.290;2023-04-24T08:45:12;0.47;;;0.47;;
6551;SDS011;3309;48.708;9.290;2023-04-24T08:47:39;0.50;;;0.50;;
6551;SDS011;3309;48.708;9.290;2023-04-24T08:50:06;0.43;;;0.43;;
6551;SDS011;3309;48.708;9.290;2023-04-24T08:52:33;0.30;;;0.30;;
6551;SDS011;3309;48.708;9.290;2023-04-24T08:55:02;0.40;;;0.40;;
6551;SDS011;3309;48.708;9.290;2023-04-24T08:57:28;0.40;;;0.40;;
6551;SDS011;3309;48.708;9.290;2023-04-24T08:59:55;0.37;;;0.37;;
6551;SDS011;3309;48.708;9.290;2023-04-24T09:02:21;0.30;;;0.30;;
6551;SDS011;3309;48.708;9.290;2023-04-24T09:04:48;0.40;;;0.40;;
6551;SDS011;3309;48.708;9.290;2023-04-24T09:07:16;0.30;;;0.30;;
6551;SDS011;3309;48.708;9.290;2023-04-24T09:09:42;0.40;;;0.40;;
6551;SDS011;3309;48.708;9.290;2023-04-24T09:12:09;0.40;;;0.40;;
6551;SDS011;3309;48.708;9.290;2023-04-24T09:14:35;0.40;;;0.40;;
6551;SDS011;3309;48.708;9.290;2023-04-24T09:17:04;0.40;;;0.40;;
6551;SDS011;3309;48.708;9.290;2023-04-24T09:19:31;0.33;;;0.33;;
6551;SDS011;3309;48.708;9.290;2023-04-24T09:21:57;0.40;;;0.40;;
6551;SDS011;3309;48.708;9.290;2023-04-24T09:24:22;0.40;;;0.40;;
6551;SDS011;3309;48.708;9.290;2023-04-24T09:26:49;0.50;;;0.50;;
6551;SDS011;3309;48.708;9.290;2023-04-24T09:29:22;0.30;;;0.30;;
6551;SDS011;3309;48.708;9.290;2023-04-24T09:31:48;0.43;;;0.43;;
6551;SDS011;3309;48.708;9.290;2023-04-24T09:34:14;0.37;;;0.37;;
6551;SDS011;3309;48.708;9.290;2023-04-24T09:36:44;0.40;;;0.40;;
6551;SDS011;3309;48.708;9.290;2023-04-24T09:39:11;0.43;;;0.43;;
6551;SDS011;3309;48.708;9.290;2023-04-24T09:41:44;0.40;;;0.40;;
6551;SDS011;3309;48.708;9.290;2023-04-24T09:44:14;0.57;;;0.57;;
6551;SDS011;3309;48.708;9.290;2023-04-24T09:46:44;0.40;;;0.40;;
6551;SDS011;3309;48.708;9.290;2023-04-24T09:49:14;0.30;;;0.30;;
6551;SDS011;3309;48.708;9.290;2023-04-24T09:51:41;0.30;;;0.30;;
6551;SDS011;3309;48.708;9.290;2023-04-24T09:54:16;0.30;;;0.30;;
6551;SDS011;3309;48.708;9.290;2023-04-24T09:56:44;0.30;;;0.30;;
6551;SDS011;3309;48.708;9.290;2023-04-24T09:59:10;0.40;;;0.40;;
6551;SDS011;3309;48.708;9.290;2023-04-24T10:01:36;0.30;;;0.30;;
6551;SDS011;3309;48.708;9.290;2023-04-24T10:04:03;0.30;;;0.30;;
6551;SDS011;3309;48.708;9.290;2023-04-24T10:06:31;0.33;;;0.33;;
6551;SDS011;3309;48.708;9.290;2023-04-24T10:08:57;0.30;;;0.30;;
6551;SDS011;3309;48.708;9.290;2023-04-24T10:11:25;0.30;;;0.30;;
6551;SDS011;3309;48.708;9.290;2023-04-24T10:13:52;0.40;;;0.40;;
6551;SDS011;3309;48.708;9.290;2023-04-24T10:16:18;0.33;;;0.33;;
6551;SDS011;3309;48.708;9.290;2023-04-24T10:18:45;0.40;;;0.40;;
6551;SDS011;3309;48.708;9.290;2023-04-24T10:21:12;0.40;;;0.40;;
6551;SDS011;3309;48.708;9.290;2023-04-24T10:23:38;0.40;;;0.40;;
6551;SDS011;3309;48.708;9.290;2023-04-24T10:26:05;0.30;;;0.30;;
6551;SDS011;3309;48.708;9.290;2023-04-24T10:28:31;0.40;;;0.40;;
6551;SDS011;3309;48.708;9.290;2023-04-24T10:30:57;0.40;;;0.40;;
6551;SDS011;3309;48.708;9.290;2023-04-24T10:33:24;0.40;;;0.40;;
6551;SDS011;3309;48.708;9.290;2023-04-24T10:35:50;0.40;;;0.40;;
6551;SDS011;3309;48.708;9.290;2023-04-24T10:38:18;0.40;;;0.40;;
6551;SDS011;3309;48.708;9.290;2023-04-24T10:40:49;0.40;;;0.40;;
6551;SDS011;3309;48.708;9.290;2023-04-24T10:43:16;0.40;;;0.40;;
6551;SDS011;3309;48.708;9.290;2023-04-24T10:45:42;0.33;;;0.33;;
6551;SDS011;3309;48.708;9.290;2023-04-24T10:48:26;0.30;;;0.30;;
6551;SDS011;3309;48.708;9.290;2023-04-24T10:50:52;0.30;;;0.30;;
6551;SDS011;3309;48.708;9.290;2023-04-24T10:53:20;0.40;;;0.40;;
6551;SDS011;3309;48.708;9.290;2023-04-24T10:55:49;0.40;;;0.40;;
6551;SDS011;3309;48.708;9.290;2023-04-24T10:58:15;0.40;;;0.40;;
6551;SDS011;3309;48.708;9.290;2023-04-24T11:00:42;0.43;;;0.43;;
6551;SDS011;3309;48.708;9.290;2023-04-24T11:03:22;0.33;;;0.33;;
6551;SDS011;3309;48.708;9.290;2023-04-24T11:05:50;0.40;;;0.40;;
6551;SDS011;3309;48.708;9.290;2023-04-24T11:08:27;0.43;;;0.43;;
6551;SDS011;3309;48.708;9.290;2023-04-24T11:10:57;0.50;;;0.50;;
6551;SDS011;3309;48.708;9.290;2023-04-24T11:13:24;0.40;;;0.40;;
6551;SDS011;3309;48.708;9.290;2023-04-24T11:18:38;0.40;;;0.40;;
6551;SDS011;3309;48.708;9.290;2023-04-24T11:21:17;0.40;;;0.40;;
6551;SDS011;3309;48.708;9.290;2023-04-24T11:23:44;0.60;;;0.60;;
6551;SDS011;3309;48.708;9.290;2023-04-24T11:26:18;0.50;;;0.50;;
6551;SDS011;3309;48.708;9.290;2023-04-24T11:28:48;0.47;;;0.47;;
6551;SDS011;3309;48.708;9.290;2023-04-24T11:34:05;0.60;;;0.60;;
6551;SDS011;3309;48.708;9.290;2023-04-24T11:36:31;0.43;;;0.43;;
6551;SDS011;3309;48.708;9.290;2023-04-24T11:38:57;0.43;;;0.43;;
6551;SDS011;3309;48.708;9.290;2023-04-24T11:41:23;0.47;;;0.47;;
6551;SDS011;3309;48.708;9.290;2023-04-24T11:43:50;0.50;;;0.50;;
6551;SDS011;3309;48.708;9.290;2023-04-24T11:46:17;0.30;;;0.30;;
6551;SDS011;3309;48.708;9.290;2023-04-24T11:48:46;0.40;;;0.40;;
6551;SDS011;3309;48.708;9.290;2023-04-24T11:51:12;0.50;;;0.50;;
6551;SDS011;3309;48.708;9.290;2023-04-24T11:53:38;0.50;;;0.50;;
6551;SDS011;3309;48.708;9.290;2023-04-24T11:56:04;0.47;;;0.47;;
6551;SDS011;3309;48.708;9.290;2023-04-24T11:58:37;0.50;;;0.50;;
6551;SDS011;3309;48.708;9.290;2023-04-24T12:01:04;0.50;;;0.50;;
6551;SDS011;3309;48.708;9.290;2023-04-24T12:03:30;0.50;;;0.50;;
6551;SDS011;3309;48.708;9.290;2023-04-24T12:06:09;0.40;;;0.40;;
6551;SDS011;3309;48.708;9.290;2023-04-24T12:08:35;0.47;;;0.47;;
6551;SDS011;3309;48.708;9.290;2023-04-24T12:11:02;0.50;;;0.50;;
6551;SDS011;3309;48.708;9.290;2023-04-24T12:13:28;0.40;;;0.40;;
6551;SDS011;3309;48.708;9.290;2023-04-24T12:15:54;0.50;;;0.50;;
6551;SDS011;3309;48.708;9.290;2023-04-24T12:18:23;0.43;;;0.43;;
6551;SDS011;3309;48.708;9.290;2023-04-24T12:20:49;0.40;;;0.40;;
6551;SDS011;3309;48.708;9.290;2023-04-24T12:23:15;0.50;;;0.50;;
6551;SDS011;3309;48.708;9.290;2023-04-24T12:25:42;0.40;;;0.40;;
6551;SDS011;3309;48.708;9.290;2023-04-24T12:28:09;0.40;;;0.40;;
6551;SDS011;3309;48.708;9.290;2023-04-24T12:30:48;0.43;;;0.43;;
6551;SDS011;3309;48.708;9.290;2023-04-24T12:33:17;0.53;;;0.53;;
6551;SDS011;3309;48.708;9.290;2023-04-24T12:35:45;0.60;;;0.60;;
6551;SDS011;3309;48.708;9.290;2023-04-24T12:38:12;0.60;;;0.60;;
6551;SDS011;3309;48.708;9.290;2023-04-24T12:40:39;0.50;;;0.50;;
6551;SDS011;3309;48.708;9.290;2023-04-24T12:45:41;0.50;;;0.50;;
6551;SDS011;3309;48.708;9.290;2023-04-24T12:48:07;0.50;;;0.50;;
6551;SDS011;3309;48.708;9.290;2023-04-24T12:50:33;0.40;;;0.40;;
6551;SDS011;3309;48.708;9.290;2023-04-24T12:52:59;0.57;;;0.57;;
6551;SDS011;3309;48.708;9.290;2023-04-24T12:55:25;0.50;;;0.50;;
6551;SDS011;3309;48.708;9.290;2023-04-24T12:57:52;0.50;;;0.50;;
6551;SDS011;3309;48.708;9.290;2023-04-24T13:00:20;0.50;;;0.50;;
6551;SDS011;3309;48.708;9.290;2023-04-24T13:02:46;0.57;;;0.57;;
6551;SDS011;3309;48.708;9.290;2023-04-24T13:05:12;0.40;;;0.40;;
6551;SDS011;3309;48.708;9.290;2023-04-24T13:07:38;0.53;;;0.53;;
6551;SDS011;3309;48.708;9.290;2023-04-24T13:10:05;0.50;;;0.50;;
6551;SDS011;3309;48.708;9.290;2023-04-24T13:12:31;0.60;;;0.60;;
6551;SDS011;3309;48.708;9.290;2023-04-24T13:14:58;0.60;;;0.60;;
6551;SDS011;3309;48.708;9.290;2023-04-24T13:17:24;0.60;;;0.60;;
6551;SDS011;3309;48.708;9.290;2023-04-24T13:19:50;0.60;;;0.60;;
6551;SDS011;3309;48.708;9.290;2023-04-24T13:22:17;0.50;;;0.50;;
6551;SDS011;3309;48.708;9.290;2023-04-24T13:24:43;0.60;;;0.60;;
6551;SDS011;3309;48.708;9.290;2023-04-24T13:27:09;0.60;;;0.60;;
6551;SDS011;3309;48.708;9.290;2023-04-24T13:29:36;0.50;;;0.50;;
6551;SDS011;3309;48.708;9.290;2023-04-24T13:32:02;0.50;;;0.50;;
6551;SDS011;3309;48.708;9.290;2023-04-24T13:34:28;0.63;;;0.63;;
6551;SDS011;3309;48.708;9.290;2023-04-24T13:36:55;0.50;;;0.50;;
6551;SDS011;3309;48.708;9.290;2023-04-24T13:39:21;0.50;;;0.50;;
6551;SDS011;3309;48.708;9.290;2023-04-24T13:41:47;0.57;;;0.57;;
6551;SDS011;3309;48.708;9.290;2023-04-24T13:44:14;0.50;;;0.50;;
6551;SDS011;3309;48.708;9.290;2023-04-24T13:46:40;0.47;;;0.47;;
6551;SDS011;3309;48.708;9.290;2023-04-24T13:49:06;0.40;;;0.40;;
6551;SDS011;3309;48.708;9.290;2023-04-24T13:51:33;0.50;;;0.50;;
6551;SDS011;3309;48.708;9.290;2023-04-24T13:53:59;0.50;;;0.50;;
6551;SDS011;3309;48.708;9.290;2023-04-24T13:56:25;0.47;;;0.47;;
6551;SDS011;3309;48.708;9.290;2023-04-24T13:58:51;0.60;;;0.60;;
6551;SDS011;3309;48.708;9.290;2023-04-24T14:01:19;0.60;;;0.60;;
6551;SDS011;3309;48.708;9.290;2023-04-24T14:03:49;0.40;;;0.40;;
6551;SDS011;3309;48.708;9.290;2023-04-24T14:06:15;0.40;;;0.40;;
6551;SDS011;3309;48.708;9.290;2023-04-24T14:08:41;0.50;;;0.50;;
6551;SDS011;3309;48.708;9.290;2023-04-24T14:11:07;0.50;;;0.50;;
6551;SDS011;3309;48.708;9.290;2023-04-24T14:13:33;0.40;;;0.40;;
6551;SDS011;3309;48.708;9.290;2023-04-24T14:15:59;0.50;;;0.50;;
6551;SDS011;3309;48.708;9.290;2023-04-24T14:18:25;0.40;;;0.40;;
6551;SDS011;3309;48.708;9.290;2023-04-24T14:20:51;0.50;;;0.50;;
6551;SDS011;3309;48.708;9.290;2023-04-24T14:23:18;0.60;;;0.60;;
6551;SDS011;3309;48.708;9.290;2023-04-24T14:25:43;0.47;;;0.47;;
6551;SDS011;3309;48.708;9.290;2023-04-24T14:28:10;0.50;;;0.50;;
6551;SDS011;3309;48.708;9.290;2023-04-24T14:30:36;0.50;;;0.50;;
6551;SDS011;3309;48.708;9.290;2023-04-24T14:33:03;0.53;;;0.53;;
6551;SDS011;3309;48.708;9.290;2023-04-24T14:35:29;0.40;;;0.40;;
6551;SDS011;3309;48.708;9.290;2023-04-24T14:37:57;0.60;;;0.60;;
6551;SDS011;3309;48.708;9.290;2023-04-24T14:40:24;0.60;;;0.60;;
6551;SDS011;3309;48.708;9.290;2023-04-24T14:42:50;0.60;;;0.60;;
6551;SDS011;3309;48.708;9.290;2023-04-24T14:45:16;0.60;;;0.60;;
6551;SDS011;3309;48.708;9.290;2023-04-24T14:47:42;0.50;;;0.50;;
6551;SDS011;3309;48.708;9.290;2023-04-24T14:50:08;0.50;;;0.50;;
6551;SDS011;3309;48.708;9.290;2023-04-24T14:52:34;0.70;;;0.70;;
6551;SDS011;3309;48.708;9.290;2023-04-24T14:55:00;0.50;;;0.50;;
6551;SDS011;3309;48.708;9.290;2023-04-24T14:57:27;0.50;;;0.50;;
6551;SDS011;3309;48.708;9.290;2023-04-24T14:59:53;0.40;;;0.40;;
6551;SDS011;3309;48.708;9.290;2023-04-24T15:02:19;0.60;;;0.60;;
6551;SDS011;3309;48.708;9.290;2023-04-24T15:04:45;0.60;;;0.60;;
6551;SDS011;3309;48.708;9.290;2023-04-24T15:07:11;0.60;;;0.60;;
6551;SDS011;3309;48.708;9.290;2023-04-24T15:09:37;0.53;;;0.53;;
6551;SDS011;3309;48.708;9.290;2023-04-24T15:12:03;0.50;;;0.50;;
6551;SDS011;3309;48.708;9.290;2023-04-24T15:14:29;0.60;;;0.60;;
6551;SDS011;3309;48.708;9.290;2023-04-24T15:16:55;0.50;;;0.50;;
6551;SDS011;3309;48.708;9.290;2023-04-24T15:19:21;0.50;;;0.50;;